Time;durP1;ratioP1;P1;durP2;ratioP2;P2;SDS_P1;SDS_P2;PMS_P1;PMS_P2;Temp;Humidity;BMP_temperature;BMP_pressure;BME280_temperature;BME280_humidity;BME280_pressure;Samples;Min_cycle;Max_cycle;Signal;HPM_P1;HPM_P2
2021/04/15 00:00:28;;;;;;;8.55;5.63;;;1.90;99.80;;;;;;5001776;28;20304;-81
2021/04/15 00:03:00;;;;;;;11.45;6.63;;;1.80;99.80;;;;;;5010401;28;20653;-83
2021/04/15 00:05:31;;;;;;;8.77;5.93;;;1.80;99.80;;;;;;5011767;28;20243;-81
2021/04/15 00:07:58;;;;;;;9.05;6.45;;;1.80;99.80;;;;;;5004101;28;20708;-85
2021/04/15 00:10:27;;;;;;;6.80;5.88;;;1.80;99.80;;;;;;4995354;28;20311;-82
2021/04/15 00:12:54;;;;;;;8.55;6.40;;;1.80;99.80;;;;;;4994568;28;20225;-82
2021/04/15 00:15:22;;;;;;;7.47;5.90;;;1.80;99.80;;;;;;5011113;28;20708;-82
2021/04/15 00:17:49;;;;;;;8.05;6.07;;;1.80;99.80;;;;;;4994548;28;20372;-83
2021/04/15 00:20:16;;;;;;;8.15;5.68;;;1.80;99.80;;;;;;5007869;28;20228;-83
2021/04/15 00:22:45;;;;;;;9.27;6.15;;;1.80;99.80;;;;;;4997172;28;20358;-82
2021/04/15 00:25:13;;;;;;;6.97;5.65;;;1.80;99.80;;;;;;5004931;28;20598;-83
2021/04/15 00:27:40;;;;;;;7.78;5.45;;;1.70;99.80;;;;;;5004298;28;20292;-82
2021/04/15 00:30:11;;;;;;;7.00;6.30;;;1.70;99.80;;;;;;4977910;28;20783;-83
2021/04/15 00:32:38;;;;;;;11.65;6.00;;;1.70;99.80;;;;;;5010347;28;20317;-82
2021/04/15 00:35:06;;;;;;;8.63;6.40;;;1.80;99.80;;;;;;5009125;28;20245;-82
2021/04/15 00:37:33;;;;;;;8.25;6.70;;;1.80;99.80;;;;;;5009202;28;20300;-83
2021/04/15 00:40:02;;;;;;;10.27;5.80;;;1.70;99.80;;;;;;4995823;28;20242;-82
2021/04/15 00:42:29;;;;;;;6.00;5.40;;;1.70;99.80;;;;;;5003501;28;20232;-81
2021/04/15 00:45:06;;;;;;;6.10;5.43;;;1.70;99.80;;;;;;4998718;28;20320;-82
2021/04/15 00:47:33;;;;;;;10.48;6.32;;;1.70;99.80;;;;;;5003592;28;20330;-82
2021/04/15 00:50:04;;;;;;;6.65;5.93;;;1.70;99.80;;;;;;5004845;28;20244;-82
2021/04/15 00:52:39;;;;;;;8.40;5.80;;;1.80;99.80;;;;;;5000623;28;20277;-82
2021/04/15 00:55:11;;;;;;;8.70;5.40;;;1.80;99.80;;;;;;5005052;28;21005;-83
2021/04/15 00:57:40;;;;;;;7.35;5.85;;;1.80;99.80;;;;;;4991104;28;20728;-82
2021/04/15 01:00:10;;;;;;;8.32;5.85;;;1.80;99.80;;;;;;5001077;28;20228;-84
2021/04/15 01:02:38;;;;;;;7.28;5.93;;;1.80;99.80;;;;;;4994979;28;20288;-84
2021/04/15 01:05:11;;;;;;;14.60;6.50;;;1.80;99.80;;;;;;5002218;28;20323;-82
2021/04/15 01:07:38;;;;;;;7.78;5.93;;;1.80;99.80;;;;;;5009161;28;20315;-84
2021/04/15 01:10:08;;;;;;;6.95;5.50;;;1.70;99.80;;;;;;5001011;28;20240;-82
2021/04/15 01:12:46;;;;;;;8.57;6.60;;;1.70;99.80;;;;;;5005450;28;20231;-82
2021/04/15 01:15:23;;;;;;;6.72;5.82;;;1.60;99.80;;;;;;5010907;28;20227;-82
2021/04/15 01:17:55;;;;;;;7.55;6.38;;;1.60;99.80;;;;;;5007679;28;20213;-80
2021/04/15 01:21:02;;;;;;;7.22;6.10;;;1.60;99.80;;;;;;5008927;28;20283;-82
2021/04/15 01:23:34;;;;;;;8.40;6.45;;;1.50;99.80;;;;;;4988934;28;20259;-84
2021/04/15 01:26:34;;;;;;;6.90;5.90;;;1.60;99.80;;;;;;4990877;28;20579;-82
2021/04/15 01:29:12;;;;;;;9.65;6.25;;;1.60;99.80;;;;;;4996256;28;20299;-82
2021/04/15 01:31:58;;;;;;;8.45;6.63;;;1.60;99.80;;;;;;5001010;28;20235;-81
2021/04/15 01:34:33;;;;;;;7.65;6.05;;;1.60;99.80;;;;;;5007627;28;20233;-82
2021/04/15 01:37:06;;;;;;;9.35;6.28;;;1.60;99.80;;;;;;5008501;28;20228;-83
2021/04/15 01:39:38;;;;;;;7.45;5.72;;;1.50;99.80;;;;;;5005151;28;20310;-83
2021/04/15 01:42:11;;;;;;;9.13;6.30;;;1.50;99.80;;;;;;5005644;28;20612;-82
2021/04/15 01:44:45;;;;;;;9.55;6.15;;;1.50;99.80;;;;;;4998635;28;20233;-82
2021/04/15 01:47:16;;;;;;;8.48;6.03;;;1.40;99.80;;;;;;5009059;28;20323;-82
2021/04/15 01:49:49;;;;;;;8.80;6.85;;;1.40;99.80;;;;;;5013431;28;23119;-83
2021/04/15 01:52:17;;;;;;;12.05;7.90;;;1.40;99.80;;;;;;4999949;28;20798;-84
2021/04/15 01:54:51;;;;;;;10.50;6.65;;;1.30;99.80;;;;;;4986945;28;20234;-83
2021/04/15 01:57:23;;;;;;;12.32;7.43;;;1.30;99.80;;;;;;4988661;28;20233;-82
2021/04/15 01:59:57;;;;;;;13.85;6.35;;;1.20;99.80;;;;;;4997162;28;20238;-83
2021/04/15 02:02:29;;;;;;;7.57;5.57;;;1.30;99.80;;;;;;5011986;28;20283;-82
2021/04/15 02:05:02;;;;;;;9.77;7.25;;;1.20;99.80;;;;;;5013809;28;20247;-83
2021/04/15 02:07:34;;;;;;;8.68;6.28;;;1.20;99.80;;;;;;5013962;28;20204;-82
2021/04/15 02:10:03;;;;;;;10.43;6.70;;;1.30;99.80;;;;;;5013223;28;20212;-83
2021/04/15 02:12:31;;;;;;;11.80;7.20;;;1.20;99.80;;;;;;5011776;28;20194;-81
2021/04/15 02:15:04;;;;;;;10.18;7.70;;;1.20;99.80;;;;;;5014286;28;20229;-81
2021/04/15 02:17:35;;;;;;;8.65;6.80;;;1.20;99.80;;;;;;4987301;28;20304;-83
2021/04/15 02:20:09;;;;;;;11.40;7.78;;;1.10;99.80;;;;;;5007921;28;20228;-81
2021/04/15 02:22:44;;;;;;;11.75;6.95;;;1.10;99.80;;;;;;5009558;28;20288;-81
2021/04/15 02:25:24;;;;;;;10.00;7.63;;;1.10;99.80;;;;;;5001003;28;20228;-82
2021/04/15 02:27:59;;;;;;;8.45;6.60;;;1.10;99.80;;;;;;5005565;28;20268;-81
2021/04/15 02:30:30;;;;;;;12.90;6.50;;;1.10;99.80;;;;;;5004562;28;20606;-81
2021/04/15 02:33:05;;;;;;;10.32;6.95;;;1.10;99.80;;;;;;5006905;28;20273;-81
2021/04/15 02:35:39;;;;;;;9.30;7.00;;;1.10;99.80;;;;;;5005339;28;20801;-81
2021/04/15 02:38:07;;;;;;;13.13;7.40;;;1.10;99.80;;;;;;4997778;28;20319;-81
2021/04/15 02:40:39;;;;;;;11.55;7.57;;;1.10;99.80;;;;;;5009449;28;20231;-82
2021/04/15 02:43:16;;;;;;;9.63;7.75;;;1.00;99.80;;;;;;5001384;28;20291;-82
2021/04/15 02:45:49;;;;;;;8.93;7.70;;;1.10;99.80;;;;;;4995234;28;20235;-82
2021/04/15 02:48:22;;;;;;;11.18;7.32;;;1.10;99.80;;;;;;4990692;28;20212;-81
2021/04/15 02:50:57;;;;;;;10.82;7.22;;;1.10;99.80;;;;;;5002675;28;20212;-82
2021/04/15 02:53:28;;;;;;;9.88;7.45;;;1.10;99.80;;;;;;4979124;28;20228;-82
2021/04/15 02:56:01;;;;;;;9.68;7.55;;;1.20;99.80;;;;;;4984952;28;20247;-81
2021/04/15 02:58:33;;;;;;;11.80;8.70;;;1.20;99.80;;;;;;4980339;28;20279;-82
2021/04/15 03:01:02;;;;;;;17.77;8.07;;;1.10;99.80;;;;;;4992140;28;20305;-81
2021/04/15 03:03:34;;;;;;;14.18;8.65;;;1.10;99.80;;;;;;5021561;28;20781;-83
2021/04/15 03:06:09;;;;;;;12.98;8.10;;;1.10;99.80;;;;;;5007670;28;20282;-82
2021/04/15 03:08:38;;;;;;;16.70;7.82;;;1.10;99.80;;;;;;5011294;28;20234;-82
2021/04/15 03:11:08;;;;;;;10.52;7.75;;;1.20;99.80;;;;;;5000961;28;20236;-82
2021/04/15 03:13:41;;;;;;;9.55;7.45;;;1.20;99.80;;;;;;4990459;28;20233;-81
2021/04/15 03:16:09;;;;;;;11.00;8.23;;;1.20;99.80;;;;;;5005528;28;20234;-84
2021/04/15 03:18:41;;;;;;;12.45;8.60;;;1.20;99.80;;;;;;5010363;28;20237;-83
2021/04/15 03:21:18;;;;;;;13.88;8.27;;;1.20;99.80;;;;;;5003661;28;20316;-83
2021/04/15 03:23:50;;;;;;;9.88;7.55;;;1.10;99.80;;;;;;5011654;28;20795;-82
2021/04/15 03:26:37;;;;;;;12.77;7.50;;;1.00;99.80;;;;;;5008028;28;20236;-83
2021/04/15 03:29:16;;;;;;;8.30;6.65;;;1.00;99.80;;;;;;4986102;28;20233;-81
2021/04/15 03:31:48;;;;;;;9.10;7.00;;;1.00;99.80;;;;;;5003464;28;20240;-85
2021/04/15 03:34:24;;;;;;;10.80;7.20;;;1.00;99.80;;;;;;5009696;28;20300;-83
2021/04/15 03:36:54;;;;;;;11.27;7.95;;;0.90;99.80;;;;;;5012010;28;20228;-83
2021/04/15 03:39:26;;;;;;;12.32;7.85;;;0.90;99.80;;;;;;5010790;28;20229;-82
2021/04/15 03:41:56;;;;;;;12.10;8.48;;;0.90;99.80;;;;;;5001236;28;20237;-83
2021/04/15 03:44:30;;;;;;;10.95;8.52;;;0.90;99.80;;;;;;5008033;28;20250;-85
2021/04/15 03:47:00;;;;;;;12.98;8.77;;;0.80;99.80;;;;;;5001226;28;20239;-82
2021/04/15 03:49:33;;;;;;;11.85;8.70;;;0.80;99.80;;;;;;5006918;28;20225;-83
2021/04/15 03:52:05;;;;;;;13.07;9.32;;;0.80;99.80;;;;;;4998592;28;20262;-82
2021/04/15 03:54:38;;;;;;;13.35;8.70;;;0.70;99.80;;;;;;5008168;28;21013;-82
2021/04/15 03:57:08;;;;;;;15.05;9.00;;;0.70;99.80;;;;;;5002456;28;20225;-83
2021/04/15 03:59:42;;;;;;;13.65;8.95;;;0.70;99.80;;;;;;4997730;28;20240;-82
2021/04/15 04:02:13;;;;;;;14.77;9.10;;;0.60;99.80;;;;;;5017439;28;20236;-83
2021/04/15 04:04:44;;;;;;;13.75;9.65;;;0.50;99.80;;;;;;5013652;28;20245;-81
2021/04/15 04:07:16;;;;;;;9.73;8.13;;;0.50;99.80;;;;;;5011444;28;20250;-81
2021/04/15 04:09:50;;;;;;;14.00;9.23;;;0.50;99.80;;;;;;5010264;28;20695;-81
2021/04/15 04:12:23;;;;;;;13.57;8.73;;;0.70;99.80;;;;;;5005531;28;20229;-83
2021/04/15 04:14:54;;;;;;;16.83;10.00;;;0.70;99.80;;;;;;4999104;28;20241;-81
2021/04/15 04:17:28;;;;;;;12.10;8.73;;;0.70;99.80;;;;;;5003911;28;20228;-83
2021/04/15 04:19:56;;;;;;;25.33;9.25;;;0.80;99.80;;;;;;5005174;28;20233;-82
2021/04/15 04:22:33;;;;;;;14.30;8.93;;;0.70;99.80;;;;;;5013361;28;20326;-82
2021/04/15 04:25:09;;;;;;;13.95;9.30;;;0.80;99.80;;;;;;5002750;28;20240;-81
2021/04/15 04:27:41;;;;;;;13.05;8.35;;;0.80;99.80;;;;;;5008816;28;20240;-81
2021/04/15 04:30:12;;;;;;;14.05;8.43;;;0.80;99.80;;;;;;4992142;28;20237;-81
2021/04/15 04:32:42;;;;;;;14.77;9.88;;;0.80;99.80;;;;;;4998037;28;20227;-83
2021/04/15 04:35:17;;;;;;;16.30;10.90;;;0.80;99.80;;;;;;5002989;28;20260;-83
2021/04/15 04:37:47;;;;;;;14.70;9.68;;;0.80;99.80;;;;;;4990877;28;20232;-81
2021/04/15 04:40:19;;;;;;;15.00;9.52;;;0.80;99.80;;;;;;4994710;28;20225;-83
2021/04/15 04:42:52;;;;;;;16.70;10.27;;;0.80;99.80;;;;;;4975673;28;20221;-81
2021/04/15 04:45:22;;;;;;;11.70;8.82;;;0.70;99.80;;;;;;4984199;28;20231;-83
2021/04/15 04:47:58;;;;;;;15.27;9.68;;;0.80;99.80;;;;;;4988757;28;20602;-82
2021/04/15 04:50:31;;;;;;;18.05;9.75;;;0.80;99.80;;;;;;5008312;28;20260;-81
2021/04/15 04:53:02;;;;;;;15.20;9.98;;;0.80;99.80;;;;;;5008212;28;20722;-81
2021/04/15 04:55:35;;;;;;;20.05;11.10;;;0.80;99.80;;;;;;5003583;28;20663;-82
2021/04/15 04:58:08;;;;;;;14.15;10.07;;;0.80;99.80;;;;;;4998151;28;20248;-82
2021/04/15 05:00:43;;;;;;;15.38;9.50;;;0.90;99.80;;;;;;4982156;28;20248;-80
2021/04/15 05:03:17;;;;;;;15.68;10.02;;;0.80;99.80;;;;;;4989514;28;20236;-82
2021/04/15 05:05:44;;;;;;;15.75;9.35;;;0.80;99.80;;;;;;4966884;28;20703;-81
2021/04/15 05:08:16;;;;;;;15.57;10.90;;;0.80;99.80;;;;;;4992832;28;20231;-81
2021/04/15 05:10:43;;;;;;;16.48;9.90;;;0.80;99.80;;;;;;4981571;28;20925;-80
2021/04/15 05:13:19;;;;;;;14.93;9.85;;;0.80;99.80;;;;;;4975251;28;20235;-81
2021/04/15 05:15:46;;;;;;;17.97;9.93;;;0.80;99.80;;;;;;4967882;28;605231;-82
2021/04/15 05:18:18;;;;;;;14.90;10.10;;;0.90;99.80;;;;;;4994021;28;20237;-81
2021/04/15 05:20:46;;;;;;;23.27;11.50;;;0.80;99.80;;;;;;4991071;28;20238;-81
2021/04/15 05:23:20;;;;;;;17.58;11.02;;;0.90;99.80;;;;;;4991324;28;20739;-81
2021/04/15 05:26:10;;;;;;;15.38;9.68;;;0.90;99.80;;;;;;5003236;28;20269;-82
2021/04/15 05:28:39;;;;;;;15.43;9.48;;;0.90;99.80;;;;;;4996792;28;20223;-82
2021/04/15 05:31:08;;;;;;;14.98;9.65;;;0.90;99.80;;;;;;4990450;28;20780;-83
2021/04/15 05:33:38;;;;;;;15.95;10.40;;;0.90;99.80;;;;;;5010784;28;20607;-81
2021/04/15 05:36:11;;;;;;;16.52;11.43;;;0.90;99.80;;;;;;4997054;28;20251;-81
2021/04/15 05:38:41;;;;;;;17.88;10.60;;;1.00;99.80;;;;;;4997313;28;20228;-81
2021/04/15 05:41:12;;;;;;;22.05;11.80;;;1.00;99.80;;;;;;5009131;28;20231;-82
2021/04/15 05:43:45;;;;;;;20.20;11.73;;;1.10;99.80;;;;;;4991228;28;20299;-82
2021/04/15 05:46:16;;;;;;;16.85;10.60;;;1.10;99.80;;;;;;5000213;28;20242;-81
2021/04/15 05:48:45;;;;;;;17.30;10.68;;;1.20;99.80;;;;;;5009364;28;20234;-82
2021/04/15 05:51:18;;;;;;;17.33;11.60;;;1.20;99.80;;;;;;5010543;28;20751;-81
2021/04/15 05:53:50;;;;;;;20.40;12.15;;;1.30;99.80;;;;;;5007282;28;20223;-79
2021/04/15 05:56:20;;;;;;;19.58;11.95;;;1.30;99.80;;;;;;5005452;28;20324;-83
2021/04/15 05:58:58;;;;;;;16.27;10.63;;;1.30;99.80;;;;;;4999519;28;20782;-84
2021/04/15 06:01:33;;;;;;;18.55;10.00;;;1.30;99.80;;;;;;4992141;28;20243;-81
2021/04/15 06:04:09;;;;;;;17.15;11.10;;;1.40;99.80;;;;;;5011157;28;20224;-82
2021/04/15 06:06:39;;;;;;;17.38;11.40;;;1.50;99.80;;;;;;4982880;28;20617;-82
2021/04/15 06:09:08;;;;;;;19.55;12.30;;;1.50;99.80;;;;;;5004302;28;20288;-83
2021/04/15 06:11:57;;;;;;;20.05;11.52;;;1.70;99.80;;;;;;4995506;28;20232;-82
2021/04/15 06:14:37;;;;;;;18.77;10.60;;;1.70;99.80;;;;;;4998147;28;20223;-83
2021/04/15 06:17:29;;;;;;;17.73;11.85;;;1.80;99.80;;;;;;4986546;28;20307;-81
2021/04/15 06:20:05;;;;;;;18.52;10.55;;;1.90;99.80;;;;;;4980136;28;20232;-82
2021/04/15 06:22:37;;;;;;;17.70;11.95;;;2.00;99.80;;;;;;4999236;28;20220;-81
2021/04/15 06:25:08;;;;;;;17.65;11.48;;;2.10;99.80;;;;;;5003462;28;20231;-83
2021/04/15 06:27:36;;;;;;;16.88;11.70;;;2.00;99.80;;;;;;5005148;28;20243;-81
2021/04/15 06:30:08;;;;;;;19.38;12.25;;;2.20;99.80;;;;;;4997856;28;20296;-81
2021/04/15 06:32:40;;;;;;;22.65;13.10;;;2.20;99.80;;;;;;5003533;28;20276;-81
2021/04/15 06:35:19;;;;;;;31.58;11.00;;;2.20;99.80;;;;;;5006827;28;20255;-80
2021/04/15 06:37:50;;;;;;;22.33;11.38;;;2.20;99.80;;;;;;5008939;28;20239;-81
2021/04/15 06:41:14;;;;;;;18.50;11.52;;;2.20;99.80;;;;;;4993070;28;20594;-80
2021/04/15 06:44:14;;;;;;;22.90;11.75;;;2.30;99.80;;;;;;4995310;28;20226;-83
2021/04/15 06:47:19;;;;;;;23.10;13.32;;;2.40;99.80;;;;;;4990141;28;20233;-83
2021/04/15 06:50:00;;;;;;;21.30;11.45;;;2.40;99.80;;;;;;4927099;28;20231;-81
2021/04/15 06:52:35;;;;;;;21.45;13.32;;;2.40;99.80;;;;;;4929548;28;20388;-82
2021/04/15 06:55:15;;;;;;;22.27;13.15;;;2.50;99.80;;;;;;4966941;28;20249;-81
2021/04/15 06:58:08;;;;;;;18.80;12.40;;;2.50;99.80;;;;;;4988605;28;20311;-82
2021/04/15 07:00:51;;;;;;;16.80;10.80;;;2.70;99.80;;;;;;4988998;28;20991;-80
2021/04/15 07:03:35;;;;;;;20.70;12.90;;;2.90;99.80;;;;;;5000863;28;20315;-82
2021/04/15 07:06:09;;;;;;;16.77;11.73;;;2.90;99.80;;;;;;5006674;28;20233;-82
2021/04/15 07:09:05;;;;;;;19.98;12.45;;;3.10;99.80;;;;;;5001283;28;20233;-81
2021/04/15 07:11:54;;;;;;;18.83;12.18;;;3.20;99.80;;;;;;5004901;28;20241;-82
2021/04/15 07:14:43;;;;;;;16.20;10.27;;;3.30;99.80;;;;;;4985431;28;20309;-83
2021/04/15 07:17:45;;;;;;;22.15;12.90;;;3.40;99.80;;;;;;4972795;28;20304;-81
2021/04/15 07:20:43;;;;;;;21.70;12.93;;;3.40;99.80;;;;;;4999790;28;21918;-81
2021/04/15 07:23:42;;;;;;;23.98;12.30;;;3.50;99.80;;;;;;4978188;28;20291;-81
2021/04/15 07:26:52;;;;;;;18.90;11.80;;;3.70;99.80;;;;;;4992552;28;20294;-81
2021/04/15 07:29:43;;;;;;;18.38;11.80;;;3.70;99.80;;;;;;4999820;28;20344;-84
2021/04/15 07:32:52;;;;;;;18.77;11.77;;;3.70;99.80;;;;;;5001149;28;20716;-82
2021/04/15 07:35:34;;;;;;;19.25;11.40;;;3.80;99.80;;;;;;4956951;28;20229;-82
2021/04/15 07:38:29;;;;;;;19.05;10.95;;;3.90;99.80;;;;;;5001781;28;20256;-82
2021/04/15 07:41:28;;;;;;;18.10;10.77;;;4.00;99.80;;;;;;5002408;28;20664;-82
2021/04/15 07:44:28;;;;;;;20.20;11.57;;;4.20;99.80;;;;;;4997939;28;20788;-83
2021/04/15 07:47:32;;;;;;;18.90;11.60;;;4.40;99.80;;;;;;5001913;28;20711;-82
2021/04/15 07:50:30;;;;;;;18.15;10.77;;;4.60;99.80;;;;;;4989240;28;20229;-83
2021/04/15 07:53:36;;;;;;;17.50;12.23;;;4.60;99.80;;;;;;4993116;28;20325;-82
2021/04/15 07:56:48;;;;;;;18.77;11.80;;;4.60;99.80;;;;;;4987901;28;20256;-82
2021/04/15 07:59:34;;;;;;;16.05;11.32;;;4.60;99.80;;;;;;4983575;28;20253;-81
2021/04/15 08:02:26;;;;;;;18.25;10.65;;;4.80;99.80;;;;;;5007247;28;20221;-81
2021/04/15 08:05:23;;;;;;;20.92;10.40;;;4.90;99.80;;;;;;5009157;28;20257;-84
2021/04/15 08:08:23;;;;;;;17.20;12.40;;;5.10;99.80;;;;;;4987361;28;20314;-83
2021/04/15 08:11:16;;;;;;;16.20;11.50;;;5.20;99.80;;;;;;4997841;28;20239;-81
2021/04/15 08:14:21;;;;;;;15.50;10.33;;;5.40;99.80;;;;;;4993830;28;20551;-81
2021/04/15 08:17:36;;;;;;;25.37;11.97;;;5.60;99.80;;;;;;4956170;28;20852;-82
2021/04/15 08:20:31;;;;;;;19.20;12.07;;;5.80;99.80;;;;;;4951801;28;20484;-81
2021/04/15 08:23:18;;;;;;;16.67;10.90;;;5.80;99.80;;;;;;5005912;28;20472;-81
2021/04/15 08:26:08;;;;;;;13.70;10.40;;;5.90;99.80;;;;;;4991780;28;20491;-82
2021/04/15 08:28:50;;;;;;;15.57;10.47;;;6.10;99.80;;;;;;4978761;28;21007;-81
2021/04/15 08:31:23;;;;;;;13.73;9.60;;;6.20;99.80;;;;;;5003471;28;20477;-86
2021/04/15 08:34:11;;;;;;;15.40;11.53;;;6.30;99.80;;;;;;4995385;28;21227;-83
2021/04/15 08:37:06;;;;;;;17.67;11.83;;;6.30;99.80;;;;;;5007846;28;20487;-83
2021/04/15 08:39:44;;;;;;;19.43;12.00;;;6.30;99.80;;;;;;5006306;28;21237;-83
2021/04/15 08:42:39;;;;;;;18.20;11.17;;;6.40;99.80;;;;;;4997315;28;20468;-85
2021/04/15 08:45:18;;;;;;;19.13;12.43;;;6.40;99.80;;;;;;5003407;28;21031;-84
2021/04/15 08:47:53;;;;;;;22.63;12.07;;;6.40;99.80;;;;;;5007701;28;20474;-85
2021/04/15 08:50:34;;;;;;;19.77;11.47;;;6.30;99.80;;;;;;5007673;28;20519;-85
2021/04/15 08:53:11;;;;;;;17.40;11.37;;;6.50;99.80;;;;;;5011371;28;20466;-86
2021/04/15 08:55:42;;;;;;;20.67;11.80;;;6.60;99.80;;;;;;4994246;28;20485;-86
2021/04/15 08:59:06;;;;;;;19.17;12.17;;;6.80;99.80;;;;;;4996622;28;20571;-86
2021/04/15 09:01:44;;;;;;;16.80;10.13;;;7.00;99.80;;;;;;4958737;28;20479;-86
2021/04/15 09:04:16;;;;;;;15.17;8.90;;;7.10;98.40;;;;;;4993660;28;21462;-84
2021/04/15 09:06:53;;;;;;;14.77;10.17;;;7.10;97.70;;;;;;5002130;28;20502;-85
2021/04/15 09:09:25;;;;;;;13.33;9.67;;;7.30;98.70;;;;;;5011427;28;20570;-85
2021/04/15 09:12:06;;;;;;;15.20;10.33;;;7.40;97.10;;;;;;5011020;28;20465;-85
2021/04/15 09:14:53;;;;;;;15.40;9.77;;;7.40;97.30;;;;;;5009682;28;20491;-85
2021/04/15 09:17:31;;;;;;;13.50;9.03;;;7.50;96.60;;;;;;5005653;28;20894;-85
2021/04/15 09:20:06;;;;;;;12.93;9.87;;;7.60;97.10;;;;;;5006144;28;20537;-85
2021/04/15 09:23:13;;;;;;;12.00;8.13;;;7.80;97.30;;;;;;5009704;28;20491;-84
2021/04/15 09:25:47;;;;;;;14.70;9.03;;;8.20;93.50;;;;;;5009171;28;21546;-85
2021/04/15 09:28:28;;;;;;;15.30;10.33;;;8.40;94.10;;;;;;5009552;28;21284;-85
2021/04/15 09:31:07;;;;;;;12.27;8.53;;;8.60;93.60;;;;;;4988140;28;20683;-85
2021/04/15 09:34:18;;;;;;;14.17;9.13;;;8.70;93.50;;;;;;4990114;28;21048;-86
2021/04/15 09:36:58;;;;;;;16.33;9.53;;;8.70;91.90;;;;;;4996609;28;21116;-86
2021/04/15 09:39:45;;;;;;;13.57;8.90;;;8.70;90.80;;;;;;4991941;28;20899;-84
2021/04/15 09:42:49;;;;;;;16.27;9.33;;;8.90;91.60;;;;;;5009642;28;20450;-85
2021/04/15 09:45:30;;;;;;;13.97;9.20;;;9.10;90.80;;;;;;5007783;28;20556;-86
2021/04/15 09:48:09;;;;;;;13.50;9.43;;;9.10;90.60;;;;;;5007160;28;20885;-85
2021/04/15 09:50:46;;;;;;;12.50;9.20;;;8.90;88.80;;;;;;5007849;28;20477;-85
2021/04/15 09:53:37;;;;;;;12.70;9.10;;;8.90;91.00;;;;;;5007618;28;20475;-85
2021/04/15 09:56:21;;;;;;;10.97;7.97;;;9.40;89.10;;;;;;5009221;28;21069;-85
2021/04/15 09:59:00;;;;;;;10.83;8.00;;;9.50;87.00;;;;;;5006805;28;20468;-86
2021/04/15 10:01:31;;;;;;;9.00;6.70;;;9.60;87.30;;;;;;5007993;28;21096;-84
2021/04/15 10:04:03;;;;;;;16.50;8.53;;;9.70;85.90;;;;;;5007688;28;20471;-86
2021/04/15 10:06:34;;;;;;;10.63;7.43;;;9.70;84.10;;;;;;5008583;28;20496;-85
2021/04/15 10:09:38;;;;;;;10.90;7.80;;;9.50;85.00;;;;;;4999673;28;20475;-85
2021/04/15 10:12:49;;;;;;;10.17;6.70;;;9.30;83.30;;;;;;5009144;28;20479;-86
2021/04/15 10:15:37;;;;;;;10.63;8.23;;;9.00;84.90;;;;;;4981155;28;20474;-81
2021/04/15 10:18:10;;;;;;;7.70;6.60;;;9.00;86.50;;;;;;5006773;28;20527;-85
2021/04/15 10:21:20;;;;;;;7.70;6.20;;;8.90;83.70;;;;;;5009904;28;20453;-85
2021/04/15 10:24:08;;;;;;;7.10;5.90;;;9.10;83.10;;;;;;5008866;28;20465;-85
2021/04/15 10:27:07;;;;;;;10.57;6.70;;;9.40;82.30;;;;;;5007324;28;20461;-84
2021/04/15 10:30:04;;;;;;;11.17;6.80;;;9.70;82.00;;;;;;4995331;28;20976;-84
2021/04/15 10:32:52;;;;;;;10.27;6.23;;;10.30;81.40;;;;;;5009461;28;20474;-83
2021/04/15 10:36:04;;;;;;;8.87;7.10;;;10.70;79.00;;;;;;5010402;28;20504;-84
2021/04/15 10:38:54;;;;;;;9.20;7.10;;;10.60;78.60;;;;;;4993730;28;20506;-87
2021/04/15 10:42:02;;;;;;;8.37;6.33;;;10.80;79.00;;;;;;5010299;28;20477;-85
2021/04/15 10:44:52;;;;;;;9.17;6.80;;;11.40;77.50;;;;;;5011976;28;20551;-85
2021/04/15 10:47:31;;;;;;;8.83;6.03;;;11.50;78.10;;;;;;5010015;28;20484;-85
2021/04/15 10:50:15;;;;;;;10.23;6.97;;;12.20;77.90;;;;;;5010511;28;20485;-84
2021/04/15 10:52:56;;;;;;;9.60;6.53;;;12.80;73.50;;;;;;5000190;28;20492;-84
2021/04/15 10:55:26;;;;;;;11.40;7.77;;;12.80;73.30;;;;;;5008472;28;20493;-84
2021/04/15 10:57:54;;;;;;;9.17;6.90;;;12.20;74.80;;;;;;5009120;28;20520;-86
2021/04/15 11:00:28;;;;;;;13.57;7.83;;;11.60;75.10;;;;;;5005837;28;21074;-85
2021/04/15 11:02:56;;;;;;;7.07;6.10;;;11.30;77.40;;;;;;4999422;28;20498;-84
2021/04/15 11:05:29;;;;;;;7.93;6.30;;;11.40;77.90;;;;;;5007258;28;20952;-85
2021/04/15 11:08:06;;;;;;;7.67;6.30;;;11.20;77.40;;;;;;4987529;28;20549;-85
2021/04/15 11:10:35;;;;;;;9.37;6.33;;;11.00;76.70;;;;;;5004224;28;21094;-86
2021/04/15 11:13:09;;;;;;;4.73;4.13;;;11.10;79.40;;;;;;4978165;28;20599;-85
2021/04/15 11:15:43;;;;;;;5.30;4.10;;;11.80;75.90;;;;;;4983695;28;20488;-85
2021/04/15 11:18:14;;;;;;;6.83;5.07;;;12.40;74.30;;;;;;4992703;28;20480;-84
2021/04/15 11:20:42;;;;;;;7.20;5.07;;;12.90;72.70;;;;;;5008033;28;20497;-84
2021/04/15 11:23:32;;;;;;;5.57;4.07;;;13.60;71.20;;;;;;5002199;28;20476;-85
2021/04/15 11:26:28;;;;;;;5.50;4.00;;;14.40;69.70;;;;;;5000963;28;20488;-85
2021/04/15 11:28:58;;;;;;;4.03;3.60;;;14.90;65.10;;;;;;4934264;28;20492;-84
2021/04/15 11:31:35;;;;;;;8.23;4.63;;;14.60;64.90;;;;;;4968191;28;21206;-84
2021/04/15 11:34:13;;;;;;;6.00;4.97;;;14.20;65.70;;;;;;4994295;28;20548;-85
2021/04/15 11:36:57;;;;;;;6.97;5.10;;;14.00;66.60;;;;;;4999493;28;20586;-85
2021/04/15 11:39:27;;;;;;;5.00;4.50;;;13.80;66.50;;;;;;4977305;28;20477;-85
2021/04/15 11:41:57;;;;;;;4.90;3.90;;;13.40;66.30;;;;;;4980039;28;20465;-85
2021/04/15 11:44:31;;;;;;;5.93;4.43;;;12.90;68.80;;;;;;4996954;28;20930;-85
2021/04/15 11:47:01;;;;;;;7.70;4.07;;;12.60;70.50;;;;;;5009238;28;20475;-85
2021/04/15 11:49:31;;;;;;;4.93;4.17;;;12.20;70.30;;;;;;5009491;28;20481;-84
2021/04/15 11:52:13;;;;;;;8.20;3.77;;;11.80;68.90;;;;;;5007312;28;22447;-85
2021/04/15 11:54:41;;;;;;;8.00;4.43;;;11.60;70.20;;;;;;5007099;28;20480;-85
2021/04/15 11:57:28;;;;;;;4.43;3.90;;;11.60;71.60;;;;;;5000040;28;20478;-85
2021/04/15 12:00:24;;;;;;;4.93;3.40;;;11.60;70.70;;;;;;4997485;28;20497;-85
2021/04/15 12:03:09;;;;;;;7.83;3.50;;;12.00;68.50;;;;;;4980246;28;20473;-87
2021/04/15 12:05:38;;;;;;;4.70;2.50;;;12.40;68.10;;;;;;4996132;28;20472;-85
2021/04/15 12:08:12;;;;;;;3.53;2.97;;;14.70;66.20;;;;;;5000457;28;20556;-84
2021/04/15 12:10:44;;;;;;;2.90;2.60;;;18.90;58.20;;;;;;5000188;28;20484;-86
2021/04/15 12:13:18;;;;;;;6.63;3.93;;;20.70;50.20;;;;;;4958247;28;20476;-85
2021/04/15 12:15:52;;;;;;;4.87;2.70;;;20.30;50.60;;;;;;4975516;28;20491;-85
2021/04/15 12:18:26;;;;;;;6.47;2.50;;;19.10;51.70;;;;;;4990781;28;20525;-86
2021/04/15 12:21:02;;;;;;;3.50;2.87;;;18.90;53.60;;;;;;4992509;28;20479;-86
2021/04/15 12:23:38;;;;;;;3.60;2.60;;;18.30;49.70;;;;;;5005464;28;20476;-85
2021/04/15 12:26:31;;;;;;;3.03;2.73;;;16.40;52.90;;;;;;5000147;28;20985;-84
2021/04/15 12:29:06;;;;;;;3.93;2.57;;;15.80;55.90;;;;;;4977175;28;20521;-86
2021/04/15 12:31:38;;;;;;;4.37;2.50;;;15.70;57.70;;;;;;4956475;28;20466;-85
2021/04/15 12:34:28;;;;;;;4.37;2.33;;;16.30;57.60;;;;;;4999443;28;20488;-85
2021/04/15 12:37:02;;;;;;;2.30;2.10;;;17.50;53.80;;;;;;4985702;28;21107;-85
2021/04/15 12:39:46;;;;;;;4.53;2.70;;;17.40;53.70;;;;;;4990062;28;20800;-86
2021/04/15 12:42:17;;;;;;;2.50;2.40;;;17.00;51.70;;;;;;4984984;28;20468;-84
2021/04/15 12:44:44;;;;;;;3.10;2.80;;;15.60;52.70;;;;;;4999291;28;20457;-86
2021/04/15 12:47:15;;;;;;;2.17;1.97;;;15.10;53.40;;;;;;5013006;28;20560;-85
2021/04/15 12:49:42;;;;;;;3.10;2.27;;;14.80;52.00;;;;;;4989554;28;20474;-85
2021/04/15 12:52:12;;;;;;;3.93;2.40;;;14.30;55.70;;;;;;5006192;28;20559;-84
2021/04/15 12:54:42;;;;;;;6.00;2.83;;;15.10;54.80;;;;;;4980057;28;20902;-84
2021/04/15 12:57:14;;;;;;;4.30;2.60;;;18.20;49.30;;;;;;4970792;28;20526;-83
2021/04/15 12:59:44;;;;;;;4.40;2.60;;;20.90;47.80;;;;;;5007863;28;20528;-82
2021/04/15 13:02:15;;;;;;;2.70;2.50;;;25.00;41.70;;;;;;5003946;28;20513;-85
2021/04/15 13:04:46;;;;;;;3.67;2.20;;;26.70;36.30;;;;;;5001123;28;20472;-87
2021/04/15 13:07:28;;;;;;;2.23;1.70;;;26.80;36.10;;;;;;5012063;28;20561;-86
2021/04/15 13:10:27;;;;;;;2.83;1.90;;;26.90;37.30;;;;;;4990362;28;20766;-86
2021/04/15 13:12:55;;;;;;;4.40;2.50;;;27.10;36.00;;;;;;4982987;28;20475;-86
2021/04/15 13:15:49;;;;;;;2.30;2.10;;;23.30;35.50;;;;;;4997401;28;20533;-85
2021/04/15 13:18:38;;;;;;;2.13;1.90;;;19.90;39.20;;;;;;4950946;28;21091;-85
2021/04/15 13:21:27;;;;;;;3.10;1.60;;;19.60;39.10;;;;;;4985572;28;20501;-85
2021/04/15 13:23:55;;;;;;;3.00;2.80;;;17.90;44.20;;;;;;4974264;28;20477;-86
2021/04/15 13:26:35;;;;;;;6.20;2.47;;;16.90;49.70;;;;;;4988544;28;20525;-85
2021/04/15 13:29:30;;;;;;;2.23;2.03;;;15.90;51.60;;;;;;4988619;28;20514;-85
2021/04/15 13:32:01;;;;;;;2.40;2.20;;;16.00;52.10;;;;;;4978531;28;20506;-85
2021/04/15 13:34:51;;;;;;;2.87;2.67;;;18.80;48.60;;;;;;5004673;28;21038;-86
2021/04/15 13:37:47;;;;;;;2.73;2.53;;;21.40;44.50;;;;;;5003042;28;20485;-85
2021/04/15 13:40:28;;;;;;;3.33;2.77;;;21.20;43.70;;;;;;4950358;28;20466;-85
2021/04/15 13:43:01;;;;;;;3.50;3.00;;;18.80;44.80;;;;;;4956207;28;21380;-85